Time;durP1;ratioP1;P1;durP2;ratioP2;P2;SDS_P1;SDS_P2;PMS_P1;PMS_P2;Temp;Humidity;BMP_temperature;BMP_pressure;BME280_temperature;BME280_humidity;BME280_pressure;Samples;Min_cycle;Max_cycle;Signal;HPM_P1;HPM_P2
2022/08/25 04:35:35;;;;;;;;;;;25.10;90.50;;;;;;5163525;22;19960;-79
2022/08/25 04:38:03;;;;;;;;;;;25.10;90.60;;;;;;5036318;28;19921;-77
2022/08/25 04:40:29;;;;;;;;;;;25.10;90.60;;;;;;5036294;28;19921;-77
2022/08/25 04:42:56;;;;;;;;;;;25.10;90.50;;;;;;5036210;28;20019;-77
2022/08/25 04:45:22;;;;;;;;;;;25.10;90.50;;;;;;5036105;28;19921;-77
2022/08/25 04:47:49;;;;;;;;;;;25.10;90.50;;;;;;5059494;22;19960;-79
2022/08/25 04:50:16;;;;;;;;;;;25.10;90.50;;;;;;5039992;28;19991;-79
2022/08/25 04:52:44;;;;;;;;;;;25.10;90.50;;;;;;5039168;28;20295;-79
2022/08/25 04:55:10;;;;;;;;;;;25.10;90.50;;;;;;5038108;28;19921;-79
2022/08/25 04:57:37;;;;;;;;;;;25.10;90.50;;;;;;5038739;28;19956;-80
2022/08/25 05:00:04;;;;;;;;;;;25.10;90.60;;;;;;5038624;28;19952;-79
2022/08/25 05:02:31;;;;;;;;;;;25.10;90.60;;;;;;5038034;28;19971;-77
2022/08/25 05:04:58;;;;;;;;;;;25.10;90.60;;;;;;5037687;28;19925;-78
2022/08/25 05:07:24;;;;;;;;;;;25.10;90.60;;;;;;5036645;28;20015;-78
2022/08/25 05:09:52;;;;;;;;;;;25.10;90.70;;;;;;5035580;28;20020;-77
2022/08/25 05:12:19;;;;;;;;;;;25.10;90.70;;;;;;5035976;28;19995;-77
2022/08/25 05:14:47;;;;;;;;;;;25.10;90.80;;;;;;5035473;28;20028;-78
2022/08/25 05:17:13;;;;;;;;;;;25.10;90.80;;;;;;5035795;28;19928;-76
2022/08/25 05:19:40;;;;;;;;;;;25.10;90.80;;;;;;5035580;28;19928;-75
2022/08/25 05:22:07;;;;;;;;;;;25.10;90.90;;;;;;5035529;28;19921;-76
2022/08/25 05:24:33;;;;;;;;;;;25.10;90.90;;;;;;5035444;28;19979;-76
2022/08/25 05:27:02;;;;;;;;;;;25.10;90.90;;;;;;5034701;28;19927;-76
2022/08/25 05:29:29;;;;;;;;;;;25.10;91.00;;;;;;5035402;28;19921;-75
2022/08/25 05:31:56;;;;;;;;;;;25.10;91.00;;;;;;5035041;28;20442;-75
2022/08/25 05:34:23;;;;;;;;;;;25.10;91.10;;;;;;5035346;28;19927;-76
2022/08/25 05:36:50;;;;;;;;;;;25.10;91.10;;;;;;5035140;28;20339;-75
2022/08/25 05:39:17;;;;;;;;;;;25.10;91.10;;;;;;5035201;28;19921;-76
2022/08/25 05:41:43;;;;;;;;;;;25.10;91.20;;;;;;5034928;28;19921;-76
2022/08/25 05:44:12;;;;;;;;;;;25.10;91.20;;;;;;5035122;28;20373;-76
2022/08/25 05:46:39;;;;;;;;;;;25.10;91.30;;;;;;5035094;28;19931;-76
2022/08/25 05:49:05;;;;;;;;;;;25.10;91.30;;;;;;5034765;28;20007;-76
2022/08/25 05:51:32;;;;;;;;;;;25.10;91.40;;;;;;5035088;28;19925;-76
2022/08/25 05:53:59;;;;;;;;;;;25.10;91.40;;;;;;5035020;28;19921;-76
2022/08/25 05:56:26;;;;;;;;;;;25.10;91.50;;;;;;5035002;28;20011;-76
2022/08/25 05:58:52;;;;;;;;;;;25.10;91.50;;;;;;5034962;28;19927;-77
2022/08/25 06:04:06;;;;;;;;;;;25.10;91.60;;;;;;5035035;28;20311;-77
2022/08/25 06:06:33;;;;;;;;;;;25.10;91.70;;;;;;5034967;28;20299;-76
2022/08/25 06:09:01;;;;;;;;;;;25.10;91.70;;;;;;5034774;28;19921;-76
2022/08/25 06:11:28;;;;;;;;;;;25.10;91.70;;;;;;5034208;28;20439;-76
2022/08/25 06:13:54;;;;;;;;;;;25.10;91.80;;;;;;5034866;28;20353;-76
2022/08/25 06:16:22;;;;;;;;;;;25.10;91.80;;;;;;5034242;28;20443;-76
2022/08/25 06:18:49;;;;;;;;;;;25.10;91.90;;;;;;5034527;28;20291;-76
2022/08/25 06:21:17;;;;;;;;;;;25.10;92.00;;;;;;5034446;28;20356;-77
2022/08/25 06:23:44;;;;;;;;;;;25.10;92.00;;;;;;5034067;28;19921;-77
2022/08/25 06:26:11;;;;;;;;;;;25.10;92.00;;;;;;5034328;28;19921;-76
2022/08/25 06:28:37;;;;;;;;;;;25.10;92.00;;;;;;5034403;28;20369;-78
2022/08/25 06:31:04;;;;;;;;;;;25.10;92.00;;;;;;5034400;28;20407;-79
2022/08/25 06:33:32;;;;;;;;;;;25.10;91.90;;;;;;5034540;28;20385;-78
2022/08/25 06:35:59;;;;;;;;;;;25.10;91.90;;;;;;5034600;28;19925;-77
2022/08/25 06:38:26;;;;;;;;;;;25.10;92.00;;;;;;5035642;28;19968;-79
2022/08/25 06:40:52;;;;;;;;;;;25.10;91.90;;;;;;5034835;28;19921;-77
2022/08/25 06:43:19;;;;;;;;;;;25.10;91.80;;;;;;5034577;28;20291;-77
2022/08/25 06:45:47;;;;;;;;;;;25.10;91.80;;;;;;5034316;28;19927;-76
2022/08/25 06:48:14;;;;;;;;;;;25.10;91.80;;;;;;5034259;28;19921;-77
2022/08/25 06:50:43;;;;;;;;;;;25.10;91.70;;;;;;5034116;28;19921;-77
2022/08/25 06:53:10;;;;;;;;;;;25.10;91.70;;;;;;5034432;28;19961;-77
2022/08/25 06:55:36;;;;;;;;;;;25.10;91.60;;;;;;5034084;28;19921;-77
2022/08/25 06:58:05;;;;;;;;;;;25.10;91.50;;;;;;5034180;28;19920;-77
2022/08/25 07:00:32;;;;;;;;;;;25.10;91.40;;;;;;5035535;28;19921;-77
2022/08/25 07:03:00;;;;;;;;;;;25.10;91.40;;;;;;5039321;28;19921;-77
2022/08/25 07:05:27;;;;;;;;;;;25.10;91.30;;;;;;5036537;28;19920;-77
2022/08/25 07:07:55;;;;;;;;;;;25.10;91.30;;;;;;5038176;28;19921;-77
2022/08/25 07:10:22;;;;;;;;;;;25.10;91.20;;;;;;5036771;28;19971;-77
2022/08/25 07:12:50;;;;;;;;;;;25.10;91.20;;;;;;5038870;28;19925;-77
2022/08/25 07:15:17;;;;;;;;;;;25.10;91.10;;;;;;5039356;28;20372;-77
2022/08/25 07:17:44;;;;;;;;;;;25.10;91.10;;;;;;5038454;28;20004;-78
2022/08/25 07:20:12;;;;;;;;;;;25.10;91.00;;;;;;5039615;28;19921;-78
2022/08/25 07:22:39;;;;;;;;;;;25.10;91.00;;;;;;5039753;28;20395;-77
2022/08/25 07:25:09;;;;;;;;;;;25.10;90.90;;;;;;5039914;28;20003;-77
2022/08/25 07:27:37;;;;;;;;;;;25.10;90.90;;;;;;5039258;28;20258;-77
2022/08/25 07:30:05;;;;;;;;;;;25.10;90.80;;;;;;5038601;28;19921;-77
2022/08/25 07:32:32;;;;;;;;;;;25.10;90.80;;;;;;5039415;28;19928;-77
2022/08/25 07:35:19;;;;;;;;;;;25.10;90.70;;;;;;5038889;28;20016;-77
2022/08/25 07:37:49;;;;;;;;;;;25.10;90.70;;;;;;5039020;28;19964;-77
2022/08/25 07:40:18;;;;;;;;;;;25.10;90.60;;;;;;5038132;28;19921;-77
2022/08/25 07:42:45;;;;;;;;;;;25.10;90.60;;;;;;5037663;28;19929;-77
2022/08/25 07:45:13;;;;;;;;;;;25.10;90.50;;;;;;5037796;28;19928;-77
2022/08/25 07:47:40;;;;;;;;;;;25.10;90.50;;;;;;5037382;28;20283;-78
2022/08/25 07:50:08;;;;;;;;;;;25.10;90.40;;;;;;5039551;28;19927;-77
2022/08/25 07:52:35;;;;;;;;;;;25.10;90.30;;;;;;5041651;28;19921;-77
2022/08/25 07:55:02;;;;;;;;;;;25.10;90.20;;;;;;5040600;28;19951;-78
2022/08/25 07:57:30;;;;;;;;;;;25.10;90.20;;;;;;5037115;28;20447;-76
2022/08/25 07:59:58;;;;;;;;;;;25.10;90.20;;;;;;5037911;28;20012;-77
2022/08/25 08:02:25;;;;;;;;;;;25.10;90.20;;;;;;5037469;28;20297;-76
2022/08/25 08:04:53;;;;;;;;;;;25.10;90.20;;;;;;5037097;28;20019;-76
2022/08/25 08:07:21;;;;;;;;;;;25.10;90.30;;;;;;5037123;28;19920;-76
2022/08/25 08:09:48;;;;;;;;;;;25.10;90.20;;;;;;5037534;28;19921;-76
2022/08/25 08:12:15;;;;;;;;;;;25.10;90.20;;;;;;5036778;28;19921;-76
2022/08/25 08:14:43;;;;;;;;;;;25.10;90.10;;;;;;5039447;28;19921;-77
2022/08/25 08:17:10;;;;;;;;;;;25.10;90.00;;;;;;5038343;28;19921;-77
2022/08/25 08:19:37;;;;;;;;;;;25.10;90.00;;;;;;5036983;28;19963;-78
2022/08/25 08:22:04;;;;;;;;;;;25.10;89.90;;;;;;5037594;28;19999;-78
2022/08/25 08:24:33;;;;;;;;;;;25.10;89.60;;;;;;5037709;28;19956;-78
2022/08/25 08:27:01;;;;;;;;;;;25.10;89.50;;;;;;5037194;28;20011;-78
2022/08/25 08:29:28;;;;;;;;;;;25.10;89.30;;;;;;5036362;28;19928;-77
2022/08/25 08:31:56;;;;;;;;;;;25.10;89.10;;;;;;5036108;28;20433;-77
2022/08/25 08:34:23;;;;;;;;;;;25.10;89.00;;;;;;5036667;28;20007;-78
2022/08/25 08:36:49;;;;;;;;;;;25.10;88.90;;;;;;5036657;28;19924;-77
2022/08/25 08:39:16;;;;;;;;;;;25.10;88.80;;;;;;5036432;28;20012;-78
2022/08/25 08:44:37;;;;;;;;;;;25.10;88.50;;;;;;5036620;28;20012;-78
2022/08/25 08:47:11;;;;;;;;;;;25.10;88.40;;;;;;5037424;28;20365;-78
2022/08/25 08:49:40;;;;;;;;;;;25.10;88.30;;;;;;5036693;28;19968;-78
2022/08/25 08:52:08;;;;;;;;;;;25.10;88.20;;;;;;5037014;28;19921;-78
2022/08/25 08:54:37;;;;;;;;;;;25.10;88.10;;;;;;5037142;28;19921;-78
2022/08/25 08:57:05;;;;;;;;;;;25.10;88.00;;;;;;5036585;28;20351;-78
2022/08/25 08:59:39;;;;;;;;;;;25.10;87.80;;;;;;5035834;28;20406;-78
2022/08/25 09:02:12;;;;;;;;;;;25.10;87.70;;;;;;5035189;28;20423;-78
2022/08/25 09:04:43;;;;;;;;;;;25.10;87.60;;;;;;5036205;28;20008;-77
2022/08/25 09:07:11;;;;;;;;;;;25.10;87.60;;;;;;5035662;28;19940;-77
2022/08/25 09:09:40;;;;;;;;;;;25.00;87.40;;;;;;5035695;28;19924;-77
2022/08/25 09:12:11;;;;;;;;;;;25.10;87.40;;;;;;5035433;28;19921;-77
2022/08/25 09:14:41;;;;;;;;;;;25.10;87.20;;;;;;5035976;28;19921;-78
2022/08/25 09:17:16;;;;;;;;;;;25.10;87.20;;;;;;5037366;28;20273;-77
2022/08/25 09:19:54;;;;;;;;;;;25.10;87.10;;;;;;5039066;28;19935;-77
2022/08/25 09:22:28;;;;;;;;;;;25.10;87.10;;;;;;5041233;28;20008;-80
2022/08/25 09:25:01;;;;;;;;;;;25.10;87.10;;;;;;5040703;28;19921;-80
2022/08/25 09:27:34;;;;;;;;;;;25.10;87.10;;;;;;5039634;28;19984;-80
2022/08/25 09:30:02;;;;;;;;;;;25.10;87.10;;;;;;5039477;28;19925;-80
2022/08/25 09:32:33;;;;;;;;;;;25.10;87.10;;;;;;5040040;28;19921;-79
2022/08/25 09:35:01;;;;;;;;;;;25.10;87.10;;;;;;5040230;28;19925;-80
2022/08/25 09:37:27;;;;;;;;;;;25.10;87.10;;;;;;5039416;28;20011;-79
2022/08/25 09:39:54;;;;;;;;;;;25.10;87.10;;;;;;5040018;28;19984;-80
2022/08/25 09:42:21;;;;;;;;;;;25.10;87.20;;;;;;5039458;28;19983;-80
2022/08/25 09:44:48;;;;;;;;;;;25.10;87.20;;;;;;5038302;28;19944;-78
2022/08/25 09:47:26;;;;;;;;;;;25.20;87.30;;;;;;5039206;28;19921;-79
2022/08/25 09:49:59;;;;;;;;;;;25.20;87.30;;;;;;5037818;28;20396;-79
2022/08/25 09:52:33;;;;;;;;;;;25.10;87.20;;;;;;5036406;28;19921;-78
2022/08/25 09:55:01;;;;;;;;;;;25.20;87.20;;;;;;5036929;28;19924;-78
2022/08/25 09:57:30;;;;;;;;;;;25.20;87.20;;;;;;5036809;28;19968;-79
2022/08/25 09:59:56;;;;;;;;;;;25.20;87.20;;;;;;5037417;28;19928;-79
2022/08/25 10:02:25;;;;;;;;;;;25.20;87.10;;;;;;5037226;28;20447;-79
2022/08/25 10:04:52;;;;;;;;;;;25.20;87.10;;;;;;5037575;28;19927;-79
2022/08/25 10:07:24;;;;;;;;;;;25.20;87.10;;;;;;5038245;28;19920;-78
2022/08/25 10:09:53;;;;;;;;;;;25.20;87.10;;;;;;5035280;28;19967;-77
2022/08/25 10:12:23;;;;;;;;;;;25.20;87.10;;;;;;5034178;28;19921;-77
2022/08/25 10:14:50;;;;;;;;;;;25.20;87.00;;;;;;5035193;28;19943;-77
2022/08/25 10:17:23;;;;;;;;;;;25.20;87.00;;;;;;5035056;28;20024;-77
2022/08/25 10:19:50;;;;;;;;;;;25.20;86.90;;;;;;5034759;28;19933;-77
2022/08/25 10:22:23;;;;;;;;;;;25.20;86.90;;;;;;5034422;28;19921;-77
2022/08/25 10:24:49;;;;;;;;;;;25.20;86.80;;;;;;5034775;28;20391;-77
2022/08/25 10:27:21;;;;;;;;;;;25.20;86.80;;;;;;5035357;28;20419;-80
2022/08/25 10:30:02;;;;;;;;;;;25.20;86.70;;;;;;5037269;28;19972;-78
2022/08/25 10:32:32;;;;;;;;;;;25.20;86.70;;;;;;5034691;28;20448;-78
2022/08/25 10:35:02;;;;;;;;;;;25.20;86.70;;;;;;5036908;28;20003;-79
2022/08/25 10:37:34;;;;;;;;;;;25.20;86.60;;;;;;5036015;28;19943;-79
2022/08/25 10:40:07;;;;;;;;;;;25.20;86.60;;;;;;5035306;28;19931;-77
2022/08/25 10:42:36;;;;;;;;;;;25.20;86.60;;;;;;5036649;28;19921;-78
2022/08/25 10:48:18;;;;;;;;;;;25.20;86.50;;;;;;5036447;28;19924;-78
2022/08/25 10:50:46;;;;;;;;;;;25.20;86.50;;;;;;5030243;28;19987;-78
2022/08/25 10:53:23;;;;;;;;;;;25.20;86.50;;;;;;5036542;28;19921;-80
2022/08/25 10:55:56;;;;;;;;;;;25.20;86.50;;;;;;5036934;28;20296;-80
2022/08/25 10:58:25;;;;;;;;;;;25.20;86.50;;;;;;5037470;28;20023;-80
2022/08/25 11:00:55;;;;;;;;;;;25.20;86.40;;;;;;5036840;28;20015;-80
2022/08/25 11:03:29;;;;;;;;;;;25.20;86.40;;;;;;5039194;28;19921;-82
2022/08/25 11:06:00;;;;;;;;;;;25.20;86.40;;;;;;5040078;28;20012;-83
2022/08/25 11:08:31;;;;;;;;;;;25.30;86.50;;;;;;5042069;28;19967;-82
2022/08/25 11:11:01;;;;;;;;;;;25.30;86.40;;;;;;5040027;28;19925;-83
2022/08/25 11:13:31;;;;;;;;;;;25.30;86.40;;;;;;5038945;28;19921;-82
2022/08/25 11:16:00;;;;;;;;;;;25.30;86.30;;;;;;5038569;28;20296;-83
2022/08/25 11:18:30;;;;;;;;;;;25.30;86.20;;;;;;5038631;28;19957;-82
2022/08/25 11:21:01;;;;;;;;;;;25.30;86.20;;;;;;5039197;28;19928;-83
2022/08/25 11:23:33;;;;;;;;;;;25.20;86.10;;;;;;5039297;28;19921;-81
2022/08/25 11:26:00;;;;;;;;;;;25.30;86.10;;;;;;5041331;28;19971;-81
2022/08/25 11:28:30;;;;;;;;;;;25.30;86.10;;;;;;5041248;28;19921;-80
2022/08/25 11:30:58;;;;;;;;;;;25.30;86.00;;;;;;5041575;28;19921;-82
2022/08/25 11:33:26;;;;;;;;;;;25.30;86.00;;;;;;5041412;28;19925;-83
2022/08/25 11:35:55;;;;;;;;;;;25.30;86.00;;;;;;5041078;28;19921;-82
2022/08/25 11:38:33;;;;;;;;;;;25.30;86.00;;;;;;5040624;28;20281;-81
2022/08/25 11:41:07;;;;;;;;;;;25.30;86.00;;;;;;5041258;28;20011;-82
2022/08/25 11:43:49;;;;;;;;;;;25.30;86.10;;;;;;5044606;28;19975;-80
2022/08/25 11:46:21;;;;;;;;;;;25.30;86.10;;;;;;5043922;28;20292;-77
2022/08/25 11:48:55;;;;;;;;;;;25.30;86.00;;;;;;5044115;28;20003;-77
2022/08/25 11:51:33;;;;;;;;;;;25.30;86.00;;;;;;5044114;28;19947;-78
2022/08/25 11:54:23;;;;;;;;;;;25.30;86.70;;;;;;5043909;28;19928;-77
2022/08/25 11:56:57;;;;;;;;;;;25.30;85.90;;;;;;5042509;28;20019;-77
2022/08/25 11:59:43;;;;;;;;;;;25.30;85.80;;;;;;5043266;28;19928;-77
2022/08/25 12:02:28;;;;;;;;;;;25.30;85.80;;;;;;5043953;28;19980;-77
2022/08/25 12:04:56;;;;;;;;;;;25.30;85.60;;;;;;5043297;28;20012;-77
2022/08/25 12:07:25;;;;;;;;;;;25.30;85.60;;;;;;5043369;28;19928;-77
2022/08/25 12:10:17;;;;;;;;;;;25.30;85.50;;;;;;5044214;28;19924;-77
2022/08/25 12:13:06;;;;;;;;;;;25.30;85.50;;;;;;5036617;28;19924;-78
2022/08/25 12:15:35;;;;;;;;;;;25.30;85.50;;;;;;5044854;28;20371;-78
2022/08/25 12:18:10;;;;;;;;;;;25.30;85.50;;;;;;5044235;28;19944;-78
2022/08/25 12:20:55;;;;;;;;;;;25.30;85.50;;;;;;5045434;28;19921;-78
2022/08/25 12:23:27;;;;;;;;;;;25.30;85.30;;;;;;5044259;28;19921;-80
2022/08/25 12:25:55;;;;;;;;;;;25.30;85.40;;;;;;5043726;28;19984;-80
2022/08/25 12:28:46;;;;;;;;;;;25.30;85.20;;;;;;5040227;28;20284;-80
2022/08/25 12:31:21;;;;;;;;;;;25.30;85.20;;;;;;5029893;28;19921;-80
2022/08/25 12:33:58;;;;;;;;;;;25.30;85.10;;;;;;5040487;28;20271;-80
2022/08/25 12:36:26;;;;;;;;;;;25.30;85.10;;;;;;5039159;28;20319;-80
2022/08/25 12:38:53;;;;;;;;;;;25.30;85.80;;;;;;5038901;28;20008;-81
2022/08/25 12:41:21;;;;;;;;;;;25.30;85.10;;;;;;5040167;28;19921;-81
2022/08/25 12:43:49;;;;;;;;;;;25.30;85.10;;;;;;5041107;28;19987;-79
2022/08/25 12:46:34;;;;;;;;;;;25.30;85.10;;;;;;5040608;28;19968;-80
2022/08/25 12:49:03;;;;;;;;;;;25.30;85.10;;;;;;5040407;28;19976;-80
2022/08/25 12:51:46;;;;;;;;;;;25.30;85.10;;;;;;5040990;28;20015;-80
2022/08/25 12:54:20;;;;;;;;;;;25.30;85.10;;;;;;5042071;28;19928;-79
2022/08/25 12:56:50;;;;;;;;;;;25.30;85.10;;;;;;5041658;28;19921;-80
2022/08/25 12:59:18;;;;;;;;;;;25.40;85.20;;;;;;5042088;28;19921;-79
2022/08/25 13:02:12;;;;;;;;;;;25.40;85.40;;;;;;5041754;28;19921;-79
2022/08/25 13:04:57;;;;;;;;;;;25.40;85.30;;;;;;5018083;28;19967;-80
2022/08/25 13:07:29;;;;;;;;;;;25.40;85.40;;;;;;5042507;28;19960;-79
2022/08/25 13:10:15;;;;;;;;;;;25.40;85.50;;;;;;5042152;28;20000;-79
2022/08/25 13:12:47;;;;;;;;;;;25.40;85.50;;;;;;5042331;28;19948;-79
2022/08/25 13:15:24;;;;;;;;;;;25.40;85.60;;;;;;5042582;28;20368;-79
2022/08/25 13:17:51;;;;;;;;;;;25.50;85.70;;;;;;5041914;28;19921;-79
2022/08/25 13:20:23;;;;;;;;;;;25.50;85.80;;;;;;5043284;28;19925;-79
2022/08/25 13:22:51;;;;;;;;;;;25.50;85.80;;;;;;5042399;28;19921;-80
2022/08/25 13:25:19;;;;;;;;;;;25.50;85.80;;;;;;5041779;28;19944;-80
2022/08/25 13:27:51;;;;;;;;;;;25.50;85.80;;;;;;5041201;28;19967;-80
2022/08/25 13:30:25;;;;;;;;;;;25.50;85.90;;;;;;5039624;28;19921;-80
2022/08/25 13:32:52;;;;;;;;;;;25.60;85.90;;;;;;5039380;28;20273;-80
2022/08/25 13:35:22;;;;;;;;;;;25.60;85.90;;;;;;5039734;28;20027;-80
2022/08/25 13:37:48;;;;;;;;;;;25.60;86.00;;;;;;5039770;28;20299;-80
2022/08/25 13:40:16;;;;;;;;;;;25.60;86.00;;;;;;5039848;28;19948;-80
2022/08/25 13:42:44;;;;;;;;;;;25.60;86.00;;;;;;5040297;28;19921;-80
2022/08/25 13:45:13;;;;;;;;;;;25.60;86.00;;;;;;5040232;28;20007;-80
2022/08/25 13:47:41;;;;;;;;;;;25.60;86.10;;;;;;5038645;28;19963;-80
2022/08/25 13:50:15;;;;;;;;;;;25.60;86.10;;;;;;5039557;28;19928;-80
2022/08/25 13:52:46;;;;;;;;;;;25.70;86.30;;;;;;5039765;28;19931;-80
2022/08/25 13:55:19;;;;;;;;;;;25.70;86.30;;;;;;5040036;28;19927;-80
2022/08/25 13:57:45;;;;;;;;;;;25.70;86.30;;;;;;5039529;28;19927;-80
2022/08/25 14:00:12;;;;;;;;;;;25.70;86.20;;;;;;5038761;28;19975;-80
2022/08/25 14:02:41;;;;;;;;;;;25.70;86.10;;;;;;5039712;28;19964;-80
2022/08/25 14:05:07;;;;;;;;;;;25.80;86.00;;;;;;5039405;28;19921;-80
2022/08/25 14:07:34;;;;;;;;;;;25.70;85.80;;;;;;5039532;28;19925;-80
2022/08/25 14:10:06;;;;;;;;;;;25.80;85.60;;;;;;5039508;28;19921;-80
2022/08/25 14:12:35;;;;;;;;;;;25.70;85.40;;;;;;5039125;28;19925;-80
2022/08/25 14:15:04;;;;;;;;;;;25.70;85.40;;;;;;5039902;28;19964;-80
2022/08/25 14:17:31;;;;;;;;;;;25.70;85.40;;;;;;5039089;28;19921;-80
2022/08/25 14:19:58;;;;;;;;;;;25.70;85.40;;;;;;5040791;28;19928;-80
2022/08/25 14:22:25;;;;;;;;;;;25.70;85.40;;;;;;5039453;28;19992;-80
2022/08/25 14:24:52;;;;;;;;;;;25.70;85.30;;;;;;5038831;28;20419;-80
2022/08/25 14:27:20;;;;;;;;;;;25.70;85.00;;;;;;5039328;28;19928;-80
2022/08/25 14:29:47;;;;;;;;;;;25.70;84.80;;;;;;5039994;28;19948;-80
2022/08/25 14:32:15;;;;;;;;;;;25.70;84.70;;;;;;5041468;28;19967;-80
2022/08/25 14:34:41;;;;;;;;;;;25.70;84.50;;;;;;5044547;28;19921;-80
2022/08/25 14:37:11;;;;;;;;;;;25.70;84.40;;;;;;5045411;28;20003;-80
2022/08/25 14:39:37;;;;;;;;;;;25.70;84.20;;;;;;5044887;28;20027;-80
2022/08/25 14:42:04;;;;;;;;;;;25.70;84.10;;;;;;5042480;28;19949;-80
2022/08/25 14:44:32;;;;;;;;;;;25.70;83.90;;;;;;5040020;28;19927;-80
2022/08/25 14:47:00;;;;;;;;;;;25.70;83.80;;;;;;5039240;28;20377;-80
2022/08/25 14:49:32;;;;;;;;;;;25.70;83.60;;;;;;5039057;28;19921;-80
2022/08/25 14:52:01;;;;;;;;;;;25.70;83.60;;;;;;5039318;28;19975;-80
2022/08/25 14:54:27;;;;;;;;;;;25.70;83.50;;;;;;5039874;28;19992;-80
2022/08/25 14:56:55;;;;;;;;;;;25.70;83.40;;;;;;5038904;28;19921;-80
2022/08/25 14:59:21;;;;;;;;;;;25.60;83.20;;;;;;5041194;28;19979;-80
2022/08/25 15:01:49;;;;;;;;;;;25.60;83.10;;;;;;5042825;28;20012;-80
2022/08/25 15:04:17;;;;;;;;;;;25.60;83.00;;;;;;5042957;28;20015;-80
2022/08/25 15:06:44;;;;;;;;;;;25.60;82.90;;;;;;5042983;28;19951;-80
2022/08/25 15:09:11;;;;;;;;;;;25.60;82.80;;;;;;5043306;28;19921;-80
2022/08/25 15:11:39;;;;;;;;;;;25.60;82.70;;;;;;5043530;28;19967;-80
2022/08/25 15:14:06;;;;;;;;;;;25.60;82.60;;;;;;5043233;28;19921;-80
2022/08/25 15:16:34;;;;;;;;;;;25.60;82.60;;;;;;5043390;28;19963;-80
2022/08/25 15:19:03;;;;;;;;;;;25.60;82.50;;;;;;5042398;28;20004;-80
2022/08/25 15:21:30;;;;;;;;;;;25.60;82.40;;;;;;5043072;28;19921;-80
2022/08/25 15:23:57;;;;;;;;;;;25.60;82.30;;;;;;5043284;28;20429;-80
2022/08/25 15:26:24;;;;;;;;;;;25.60;82.30;;;;;;5042605;28;20423;-80
2022/08/25 15:28:51;;;;;;;;;;;25.60;82.20;;;;;;5041962;28;19928;-80
2022/08/25 15:31:18;;;;;;;;;;;25.60;82.20;;;;;;5042814;28;20354;-80
2022/08/25 15:33:46;;;;;;;;;;;25.60;82.10;;;;;;5042708;28;19921;-80
2022/08/25 15:36:15;;;;;;;;;;;25.60;82.10;;;;;;5042639;28;20381;-80
2022/08/25 15:38:43;;;;;;;;;;;25.60;82.00;;;;;;5041936;28;19921;-80
2022/08/25 15:41:10;;;;;;;;;;;25.60;81.90;;;;;;5042656;28;19921;-80
2022/08/25 15:43:37;;;;;;;;;;;25.60;81.90;;;;;;5042876;28;19927;-80
2022/08/25 15:46:05;;;;;;;;;;;25.60;81.90;;;;;;5042477;28;20388;-80
2022/08/25 15:48:32;;;;;;;;;;;25.60;81.80;;;;;;5042457;28;19996;-80
2022/08/25 15:50:59;;;;;;;;;;;25.60;81.80;;;;;;5042326;28;20007;-80
2022/08/25 15:53:28;;;;;;;;;;;25.60;81.70;;;;;;5042977;28;19921;-80
2022/08/25 15:55:56;;;;;;;;;;;25.60;81.70;;;;;;5042162;28;20327;-80
2022/08/25 15:58:23;;;;;;;;;;;25.60;81.60;;;;;;5043676;28;19976;-80
2022/08/25 16:00:49;;;;;;;;;;;25.50;81.50;;;;;;5047248;28;19921;-80
2022/08/25 16:03:16;;;;;;;;;;;25.60;81.50;;;;;;5048984;28;19984;-80
2022/08/25 16:05:44;;;;;;;;;;;25.50;81.40;;;;;;5043271;28;19978;-80
2022/08/25 16:08:10;;;;;;;;;;;25.50;81.30;;;;;;5043276;28;19928;-80
2022/08/25 16:10:39;;;;;;;;;;;25.50;81.30;;;;;;5042066;28;20007;-80
2022/08/25 16:13:07;;;;;;;;;;;25.50;81.30;;;;;;5042031;28;19971;-80
2022/08/25 16:15:34;;;;;;;;;;;25.50;81.20;;;;;;5041380;28;19972;-80
2022/08/25 16:18:01;;;;;;;;;;;25.50;81.20;;;;;;5041950;28;19928;-80
2022/08/25 16:20:28;;;;;;;;;;;25.50;81.10;;;;;;5042167;28;19921;-80
2022/08/25 16:22:55;;;;;;;;;;;25.50;81.10;;;;;;5041911;28;19979;-80
2022/08/25 16:25:21;;;;;;;;;;;25.50;81.10;;;;;;5042026;28;19968;-80
2022/08/25 16:27:49;;;;;;;;;;;25.50;81.00;;;;;;5041440;28;19921;-80
2022/08/25 16:30:16;;;;;;;;;;;25.50;81.00;;;;;;5041288;28;20416;-80
2022/08/25 16:32:42;;;;;;;;;;;25.50;81.00;;;;;;5040379;28;20019;-79
2022/08/25 16:35:10;;;;;;;;;;;25.50;80.90;;;;;;5041076;28;20357;-81
2022/08/25 16:37:36;;;;;;;;;;;25.50;81.00;;;;;;5039296;28;20016;-79
2022/08/25 16:40:03;;;;;;;;;;;25.50;81.00;;;;;;5039374;28;19963;-79
2022/08/25 16:42:30;;;;;;;;;;;25.50;81.00;;;;;;5038637;28;19975;-78
2022/08/25 16:44:58;;;;;;;;;;;25.50;80.90;;;;;;5038999;28;20359;-79
2022/08/25 16:47:25;;;;;;;;;;;25.50;81.00;;;;;;5038954;28;19928;-79
2022/08/25 16:49:52;;;;;;;;;;;25.50;81.00;;;;;;5039179;28;19944;-79
2022/08/25 16:55:15;;;;;;;;;;;25.50;80.90;;;;;;5039004;28;20012;-79
2022/08/25 16:57:42;;;;;;;;;;;25.50;80.90;;;;;;5039146;28;19921;-78
2022/08/25 17:00:12;;;;;;;;;;;25.50;80.90;;;;;;5038649;28;20098;-78
2022/08/25 17:02:39;;;;;;;;;;;25.50;80.90;;;;;;5038345;28;19975;-78
2022/08/25 17:05:07;;;;;;;;;;;25.50;80.90;;;;;;5038412;28;19928;-78
2022/08/25 17:07:33;;;;;;;;;;;25.50;80.90;;;;;;5040439;28;20023;-80
2022/08/25 17:10:00;;;;;;;;;;;25.50;80.90;;;;;;5039770;28;19921;-80
2022/08/25 17:12:27;;;;;;;;;;;25.50;80.90;;;;;;5039875;28;20332;-79
2022/08/25 17:14:53;;;;;;;;;;;25.50;80.80;;;;;;5038723;28;19921;-80
2022/08/25 17:17:21;;;;;;;;;;;25.50;80.80;;;;;;5038666;28;19927;-80
2022/08/25 17:19:48;;;;;;;;;;;25.40;80.80;;;;;;5039103;28;19921;-80
2022/08/25 17:22:15;;;;;;;;;;;25.40;80.80;;;;;;5037320;28;19960;-81
2022/08/25 17:24:42;;;;;;;;;;;25.40;80.80;;;;;;5038689;28;19976;-81
2022/08/25 17:27:09;;;;;;;;;;;25.40;80.80;;;;;;5038523;28;20289;-80
2022/08/25 17:29:35;;;;;;;;;;;25.40;80.80;;;;;;5038519;28;19993;-81
2022/08/25 17:32:02;;;;;;;;;;;25.40;80.80;;;;;;5038783;28;19928;-81
2022/08/25 17:34:30;;;;;;;;;;;25.40;80.80;;;;;;5038689;28;19921;-80
2022/08/25 17:36:58;;;;;;;;;;;25.40;80.70;;;;;;5038516;28;20012;-81
2022/08/25 17:39:25;;;;;;;;;;;25.40;80.80;;;;;;5038298;28;19925;-81
2022/08/25 17:41:52;;;;;;;;;;;25.40;80.70;;;;;;5037773;28;19928;-80
2022/08/25 17:44:19;;;;;;;;;;;25.40;80.80;;;;;;5038239;28;20376;-80
2022/08/25 17:46:46;;;;;;;;;;;25.40;80.80;;;;;;5038331;28;20020;-80
2022/08/25 17:49:13;;;;;;;;;;;25.40;80.80;;;;;;5037373;28;20004;-80
2022/08/25 17:51:41;;;;;;;;;;;25.40;80.80;;;;;;5037816;28;19920;-80
2022/08/25 17:54:08;;;;;;;;;;;25.40;80.70;;;;;;5037521;28;20459;-80
2022/08/25 17:56:35;;;;;;;;;;;25.40;80.80;;;;;;5038118;28;20350;-81
2022/08/25 17:59:01;;;;;;;;;;;25.40;80.70;;;;;;5037390;28;19936;-80
2022/08/25 18:01:29;;;;;;;;;;;25.40;80.80;;;;;;5038202;28;19975;-80
2022/08/25 18:03:57;;;;;;;;;;;25.40;80.80;;;;;;5037331;28;20440;-80
2022/08/25 18:06:25;;;;;;;;;;;25.40;80.80;;;;;;5037793;28;19921;-81
2022/08/25 18:08:53;;;;;;;;;;;25.40;80.80;;;;;;5037756;28;19921;-80
2022/08/25 18:11:19;;;;;;;;;;;25.40;80.80;;;;;;5038150;28;19927;-81
2022/08/25 18:13:46;;;;;;;;;;;25.40;80.80;;;;;;5038289;28;20452;-81
2022/08/25 18:16:13;;;;;;;;;;;25.40;80.80;;;;;;5038296;28;19928;-81
2022/08/25 18:18:43;;;;;;;;;;;25.40;80.80;;;;;;5038015;28;20416;-81
2022/08/25 18:21:11;;;;;;;;;;;25.40;80.80;;;;;;5038293;28;19944;-81
2022/08/25 18:23:37;;;;;;;;;;;25.40;80.90;;;;;;5037819;28;20364;-81
2022/08/25 18:26:05;;;;;;;;;;;25.40;80.90;;;;;;5038192;28;19921;-81
2022/08/25 18:28:32;;;;;;;;;;;25.40;81.00;;;;;;5037835;28;20007;-81
2022/08/25 18:30:59;;;;;;;;;;;25.40;81.00;;;;;;5038416;28;19952;-81
2022/08/25 18:33:25;;;;;;;;;;;25.40;81.10;;;;;;5036858;28;19925;-81
2022/08/25 18:35:52;;;;;;;;;;;25.40;81.10;;;;;;5037714;28;19927;-81
2022/08/25 18:41:04;;;;;;;;;;;25.40;81.10;;;;;;5038117;28;19924;-80
2022/08/25 18:43:33;;;;;;;;;;;25.40;81.20;;;;;;5038069;28;19956;-80
2022/08/25 18:46:02;;;;;;;;;;;25.40;81.30;;;;;;5037767;28;19925;-80
2022/08/25 18:48:30;;;;;;;;;;;25.40;81.30;;;;;;5037641;28;20017;-80
2022/08/25 18:50:57;;;;;;;;;;;25.40;81.30;;;;;;5038098;28;19921;-81
2022/08/25 18:53:24;;;;;;;;;;;25.40;81.40;;;;;;5037935;28;20012;-81
2022/08/25 18:55:53;;;;;;;;;;;25.30;81.30;;;;;;5037796;28;19928;-80
2022/08/25 18:58:20;;;;;;;;;;;25.30;81.40;;;;;;5038066;28;19920;-80
2022/08/25 19:00:48;;;;;;;;;;;25.30;81.40;;;;;;5038086;28;20015;-80
2022/08/25 19:03:15;;;;;;;;;;;25.30;81.40;;;;;;5038120;28;19970;-81
2022/08/25 19:05:43;;;;;;;;;;;25.30;81.50;;;;;;5037954;28;19927;-81
2022/08/25 19:08:12;;;;;;;;;;;25.30;81.50;;;;;;5037133;28;20355;-80
2022/08/25 19:10:39;;;;;;;;;;;25.30;81.60;;;;;;5036545;28;20451;-80
2022/08/25 19:13:07;;;;;;;;;;;25.30;81.60;;;;;;5035723;28;20327;-80
2022/08/25 19:15:34;;;;;;;;;;;25.30;81.60;;;;;;5035307;28;19921;-81